createdAt,value
2022-09-27T00:01:19.145Z,11.85
2022-09-27T00:03:46.247Z,11.05
2022-09-27T00:06:22.398Z,9.98
2022-09-27T00:08:49.349Z,9.80
2022-09-27T00:11:37.120Z,9.48
2022-09-27T00:14:05.636Z,9.77
2022-09-27T00:16:35.760Z,10.07
2022-09-27T00:19:05.498Z,8.50
2022-09-27T00:21:32.773Z,9.52
2022-09-27T00:24:00.127Z,9.27
2022-09-27T00:26:27.669Z,10.38
2022-09-27T00:28:54.923Z,9.93
2022-09-27T00:31:29.521Z,9.52
2022-09-27T00:33:58.935Z,9.68
2022-09-27T00:36:26.691Z,8.95
2022-09-27T00:38:54.569Z,9.85
2022-09-27T00:41:27.999Z,10.20
2022-09-27T00:43:58.020Z,10.63
2022-09-27T00:46:40.885Z,10.65
2022-09-27T00:49:25.040Z,11.18
2022-09-27T00:54:26.872Z,10.43
2022-09-27T00:56:54.523Z,10.63
2022-09-27T00:59:25.953Z,10.82
2022-09-27T01:01:53.547Z,10.93
2022-09-27T01:04:28.078Z,9.93
2022-09-27T01:09:23.304Z,10.65
2022-09-27T01:12:37.596Z,10.75
2022-09-27T01:15:33.627Z,10.15
2022-09-27T01:18:06.944Z,8.73
2022-09-27T01:20:52.966Z,10.00
2022-09-27T01:23:31.604Z,9.25
2022-09-27T01:26:10.668Z,10.35
2022-09-27T01:29:13.898Z,10.77
2022-09-27T01:31:51.297Z,10.90
2022-09-27T01:34:32.425Z,10.77
2022-09-27T01:37:14.418Z,12.13
2022-09-27T01:40:17.000Z,11.75
2022-09-27T01:43:18.657Z,11.30
2022-09-27T01:46:15.490Z,10.57
2022-09-27T01:49:08.758Z,10.90
2022-09-27T01:51:49.715Z,11.75
2022-09-27T01:54:30.489Z,11.60
2022-09-27T01:57:35.293Z,12.75
2022-09-27T02:00:10.535Z,11.55
2022-09-27T02:03:05.271Z,11.48
2022-09-27T02:05:43.564Z,11.43
2022-09-27T02:08:43.937Z,11.20
2022-09-27T02:11:21.323Z,11.50
2022-09-27T02:14:13.738Z,10.43
2022-09-27T02:16:51.898Z,10.05
2022-09-27T02:19:42.941Z,9.40
2022-09-27T02:22:25.327Z,9.23
2022-09-27T02:25:01.456Z,9.55
2022-09-27T02:27:47.273Z,10.80
2022-09-27T02:30:15.898Z,11.18
2022-09-27T02:32:46.688Z,10.23
2022-09-27T02:35:23.336Z,11.48
2022-09-27T02:37:51.648Z,10.90
2022-09-27T02:40:20.191Z,10.80
2022-09-27T02:42:47.644Z,10.77
2022-09-27T02:45:17.723Z,11.45
2022-09-27T02:48:20.162Z,10.57
2022-09-27T02:51:17.304Z,10.02
2022-09-27T02:54:09.019Z,9.77
2022-09-27T02:57:10.860Z,9.52
2022-09-27T03:00:22.866Z,9.32
2022-09-27T03:03:07.767Z,9.02
2022-09-27T03:05:53.937Z,9.13
2022-09-27T03:08:21.699Z,8.23
2022-09-27T03:10:48.702Z,9.07
2022-09-27T03:13:16.528Z,8.68
2022-09-27T03:15:46.392Z,8.57
2022-09-27T03:18:19.385Z,8.93
2022-09-27T03:21:04.722Z,8.68
2022-09-27T03:23:32.264Z,8.43
2022-09-27T03:25:59.596Z,9.07
2022-09-27T03:28:29.651Z,8.70
2022-09-27T03:30:56.859Z,9.30
2022-09-27T03:33:50.042Z,8.90
2022-09-27T03:36:17.494Z,10.02
2022-09-27T03:38:44.465Z,11.48
2022-09-27T03:41:16.543Z,10.30
2022-09-27T03:43:44.002Z,11.10
2022-09-27T03:46:11.399Z,11.75
2022-09-27T03:48:38.591Z,11.15
2022-09-27T03:51:05.684Z,9.65
2022-09-27T03:53:32.761Z,9.95
2022-09-27T03:55:59.832Z,11.27
2022-09-27T03:58:27.054Z,10.18
2022-09-27T04:00:53.973Z,11.13
2022-09-27T04:03:21.033Z,12.25
2022-09-27T04:06:08.624Z,11.15
2022-09-27T04:08:39.515Z,11.35
2022-09-27T04:11:07.640Z,12.27
2022-09-27T04:13:36.325Z,12.40
2022-09-27T04:16:04.879Z,10.50
2022-09-27T04:18:32.116Z,9.98
2022-09-27T04:21:17.317Z,10.75
2022-09-27T04:23:50.356Z,11.23
2022-09-27T04:26:21.145Z,11.18
2022-09-27T04:29:09.830Z,11.70
2022-09-27T04:31:40.496Z,11.77
2022-09-27T04:34:46.070Z,11.02
2022-09-27T04:37:15.436Z,10.65
2022-09-27T04:39:49.336Z,11.52
2022-09-27T04:42:17.728Z,10.70
2022-09-27T04:44:45.128Z,10.80
2022-09-27T04:47:12.576Z,10.23
2022-09-27T04:49:40.960Z,10.73
2022-09-27T04:52:09.241Z,11.80
2022-09-27T04:54:36.549Z,10.88
2022-09-27T04:57:10.528Z,11.15
2022-09-27T04:59:38.167Z,10.55
2022-09-27T05:02:05.981Z,10.40
2022-09-27T05:04:59.545Z,9.77
2022-09-27T05:07:34.862Z,9.48
2022-09-27T05:10:07.426Z,10.75
2022-09-27T05:12:35.039Z,10.80
2022-09-27T05:15:03.347Z,9.77
2022-09-27T05:18:08.184Z,9.25
2022-09-27T05:20:56.884Z,9.13
2022-09-27T05:23:31.424Z,8.88
2022-09-27T05:25:58.993Z,8.85
2022-09-27T05:28:26.027Z,8.00
2022-09-27T05:30:53.051Z,8.02
2022-09-27T05:33:21.752Z,8.63
2022-09-27T05:35:56.239Z,8.60
2022-09-27T05:38:28.292Z,8.55
2022-09-27T05:40:57.628Z,9.10
2022-09-27T05:43:25.305Z,9.43
2022-09-27T05:45:53.520Z,10.32
2022-09-27T05:48:22.251Z,10.27
2022-09-27T05:50:55.874Z,10.65
2022-09-27T05:53:23.081Z,9.18
2022-09-27T05:55:50.268Z,9.30
2022-09-27T05:58:20.506Z,9.60
2022-09-27T06:00:53.755Z,9.88
2022-09-27T06:03:47.772Z,9.45
2022-09-27T06:06:14.928Z,8.88
2022-09-27T06:08:49.298Z,8.80
2022-09-27T06:11:19.004Z,7.05
2022-09-27T06:13:47.378Z,8.27
2022-09-27T06:16:14.465Z,7.20
2022-09-27T06:18:44.796Z,7.38
2022-09-27T06:21:13.216Z,7.30
2022-09-27T06:23:43.047Z,7.18
2022-09-27T06:26:20.283Z,7.55
2022-09-27T06:29:10.278Z,3.30
2022-09-27T06:31:42.793Z,2.22
2022-09-27T06:34:32.907Z,3.88
2022-09-27T06:36:59.867Z,2.28
2022-09-27T06:39:28.540Z,1.73
2022-09-27T06:42:24.566Z,1.50
2022-09-27T06:45:14.517Z,1.77
2022-09-27T06:48:17.498Z,1.55
2022-09-27T06:50:51.178Z,1.80
2022-09-27T06:53:19.636Z,1.65
2022-09-27T06:55:46.673Z,1.73
2022-09-27T06:58:32.192Z,1.75
2022-09-27T07:01:22.045Z,2.05
2022-09-27T07:04:11.426Z,2.65
2022-09-27T07:06:53.659Z,1.70
2022-09-27T07:09:23.336Z,1.38
2022-09-27T07:11:50.369Z,1.60
2022-09-27T07:14:17.608Z,1.63
2022-09-27T07:16:46.045Z,1.40
2022-09-27T07:19:14.458Z,2.05
2022-09-27T07:21:41.936Z,1.80
2022-09-27T07:24:08.965Z,2.67
2022-09-27T07:26:35.954Z,2.45
2022-09-27T07:29:05.464Z,2.78
2022-09-27T07:31:32.604Z,3.22
2022-09-27T07:33:59.570Z,2.42
2022-09-27T07:36:26.609Z,2.88
2022-09-27T07:38:53.940Z,2.83
2022-09-27T07:41:21.648Z,3.00
2022-09-27T07:43:48.612Z,3.00
2022-09-27T07:46:15.686Z,3.95
2022-09-27T07:49:03.007Z,2.80
2022-09-27T07:51:45.466Z,2.25
2022-09-27T07:54:48.065Z,2.28
2022-09-27T07:57:40.086Z,2.55
2022-09-27T08:00:12.861Z,2.30
2022-09-27T08:02:44.667Z,3.05
2022-09-27T08:05:13.260Z,2.97
2022-09-27T08:07:40.830Z,3.00
2022-09-27T08:10:09.347Z,2.60
2022-09-27T08:12:37.690Z,2.67
2022-09-27T08:15:05.408Z,2.58
2022-09-27T08:17:33.167Z,2.40
2022-09-27T08:20:22.890Z,2.25
2022-09-27T08:23:24.657Z,2.08
2022-09-27T08:26:05.057Z,2.05
2022-09-27T08:28:43.065Z,2.20
2022-09-27T08:31:19.516Z,2.15
2022-09-27T08:33:51.588Z,2.58
2022-09-27T08:36:20.399Z,2.33
2022-09-27T08:38:51.441Z,2.38
2022-09-27T08:41:49.338Z,7.75
2022-09-27T08:44:51.727Z,3.15
2022-09-27T08:47:44.771Z,2.47
2022-09-27T08:50:53.234Z,3.50
2022-09-27T08:53:53.667Z,2.88
2022-09-27T08:56:22.595Z,6.05
2022-09-27T08:58:57.849Z,3.10
2022-09-27T09:01:31.772Z,3.42
2022-09-27T09:04:42.869Z,3.25
2022-09-27T09:07:36.082Z,3.22
2022-09-27T09:10:36.617Z,2.40
2022-09-27T09:13:19.356Z,2.50
2022-09-27T09:16:11.254Z,2.47
2022-09-27T09:18:43.714Z,4.22
2022-09-27T09:21:37.444Z,2.90
2022-09-27T09:24:19.580Z,4.25
2022-09-27T09:27:04.578Z,4.07
2022-09-27T09:30:02.799Z,2.58
2022-09-27T09:32:49.287Z,2.38
2022-09-27T09:35:41.559Z,2.55
2022-09-27T09:38:23.402Z,2.50
2022-09-27T09:41:19.354Z,2.28
2022-09-27T09:43:56.321Z,2.05
2022-09-27T09:46:45.558Z,2.42
2022-09-27T09:49:35.931Z,2.75
2022-09-27T09:52:11.208Z,2.80
2022-09-27T09:54:47.263Z,2.55
2022-09-27T09:57:22.852Z,2.80
2022-09-27T09:59:58.457Z,2.75
2022-09-27T10:02:34.091Z,3.80
2022-09-27T10:05:19.276Z,4.43
2022-09-27T10:07:53.262Z,4.45
2022-09-27T10:10:21.720Z,4.15
2022-09-27T10:12:56.282Z,4.85
2022-09-27T10:15:30.774Z,3.95
2022-09-27T10:17:59.814Z,4.15
2022-09-27T10:20:39.871Z,4.10
2022-09-27T10:23:22.197Z,5.82
2022-09-27T10:26:21.660Z,6.07
2022-09-27T10:28:51.855Z,5.30
2022-09-27T10:31:24.679Z,5.63
2022-09-27T10:34:07.167Z,5.00
2022-09-27T10:36:41.031Z,5.10
2022-09-27T10:39:22.314Z,5.15
2022-09-27T10:41:49.321Z,4.90
2022-09-27T10:44:38.152Z,5.18
2022-09-27T10:47:26.467Z,5.57
2022-09-27T10:50:08.089Z,4.80
2022-09-27T10:53:21.023Z,4.60
2022-09-27T10:55:58.285Z,5.78
2022-09-27T10:58:31.275Z,4.60
2022-09-27T11:03:31.756Z,4.78
2022-09-27T11:05:59.779Z,5.13
2022-09-27T11:08:32.673Z,5.15
2022-09-27T11:11:35.176Z,6.40
2022-09-27T11:14:17.903Z,6.88
2022-09-27T11:17:29.555Z,6.53
2022-09-27T11:20:04.784Z,6.05
2022-09-27T11:23:08.868Z,6.00
2022-09-27T11:25:57.758Z,6.85
2022-09-27T11:28:29.119Z,5.68
2022-09-27T11:31:05.917Z,5.65
2022-09-27T11:33:52.905Z,7.53
2022-09-27T11:36:25.564Z,6.15
2022-09-27T11:39:23.705Z,5.40
2022-09-27T11:42:11.141Z,5.55
2022-09-27T11:45:32.020Z,6.25
2022-09-27T11:48:07.402Z,6.68
2022-09-27T11:51:03.649Z,7.13
2022-09-27T11:53:43.657Z,6.40
2022-09-27T11:56:19.801Z,7.10
2022-09-27T11:59:07.170Z,6.82
2022-09-27T12:01:51.014Z,7.07
2022-09-27T12:04:27.137Z,7.13
2022-09-27T12:07:15.765Z,7.47
2022-09-27T12:09:57.212Z,7.25
2022-09-27T12:12:46.816Z,8.43
2022-09-27T12:15:36.314Z,9.10
2022-09-27T12:18:32.340Z,8.15
2022-09-27T12:21:04.143Z,8.00
2022-09-27T12:23:49.046Z,9.88
2022-09-27T12:26:43.744Z,8.77
2022-09-27T12:29:20.594Z,6.90
2022-09-27T12:32:02.626Z,8.02
2022-09-27T12:34:50.732Z,8.65
2022-09-27T12:37:45.881Z,7.95
2022-09-27T12:40:31.491Z,8.77
2022-09-27T12:43:08.812Z,8.35
2022-09-27T12:46:34.947Z,9.20
2022-09-27T12:49:25.224Z,9.25
2022-09-27T12:52:08.195Z,8.25
2022-09-27T12:54:38.110Z,8.07
2022-09-27T12:57:33.293Z,8.23
2022-09-27T13:00:25.206Z,6.40
2022-09-27T13:03:33.671Z,8.52
2022-09-27T13:06:29.766Z,8.25
2022-09-27T13:09:04.636Z,8.15
2022-09-27T13:11:41.760Z,7.82
2022-09-27T13:14:21.456Z,8.88
2022-09-27T13:16:49.917Z,7.88
2022-09-27T13:19:42.858Z,9.02
2022-09-27T13:25:24.080Z,8.43
2022-09-27T13:28:02.839Z,9.00
2022-09-27T13:30:37.396Z,9.50
2022-09-27T13:33:10.681Z,8.57
2022-09-27T13:36:30.595Z,10.13
2022-09-27T13:39:11.575Z,8.55
2022-09-27T13:42:47.475Z,8.23
2022-09-27T13:45:27.126Z,8.95
2022-09-27T13:47:56.895Z,8.70
2022-09-27T13:50:56.338Z,7.15
2022-09-27T13:53:38.998Z,7.75
2022-09-27T13:56:07.294Z,7.73
2022-09-27T13:58:54.804Z,7.88
2022-09-27T14:02:33.645Z,6.32
2022-09-27T14:05:02.153Z,6.45
2022-09-27T14:07:41.414Z,6.30
2022-09-27T14:10:16.317Z,9.95
2022-09-27T14:12:45.875Z,9.50
2022-09-27T14:15:21.271Z,8.70
2022-09-27T14:17:48.471Z,7.47
2022-09-27T14:20:41.857Z,8.13
2022-09-27T14:23:26.147Z,9.10
2022-09-27T14:25:55.135Z,10.73
2022-09-27T14:28:24.962Z,8.43
2022-09-27T14:31:18.050Z,9.88
2022-09-27T14:34:08.991Z,9.20
2022-09-27T14:36:57.486Z,9.07
2022-09-27T14:39:33.447Z,10.45
2022-09-27T14:42:16.810Z,10.23
2022-09-27T14:44:45.564Z,11.75
2022-09-27T14:47:19.979Z,11.48
2022-09-27T14:49:56.078Z,9.82
2022-09-27T14:52:31.383Z,11.50
2022-09-27T14:55:07.674Z,12.95
2022-09-27T14:57:37.159Z,12.18
2022-09-27T15:00:36.303Z,11.52
2022-09-27T15:03:09.246Z,13.45
2022-09-27T15:05:41.007Z,12.15
2022-09-27T15:08:11.898Z,11.55
2022-09-27T15:10:39.313Z,12.38
2022-09-27T15:13:06.921Z,11.52
2022-09-27T15:15:36.873Z,11.50
2022-09-27T15:18:24.521Z,12.05
2022-09-27T15:20:55.263Z,12.73
2022-09-27T15:23:37.199Z,12.07
2022-09-27T15:26:18.195Z,11.25
2022-09-27T15:28:48.260Z,10.52
2022-09-27T15:31:15.799Z,11.05
2022-09-27T15:33:52.056Z,10.05
2022-09-27T15:36:41.635Z,10.38
2022-09-27T15:39:10.320Z,10.52
2022-09-27T15:42:17.748Z,11.20
2022-09-27T15:44:46.173Z,9.45
2022-09-27T15:47:40.321Z,10.50
2022-09-27T15:52:52.930Z,9.60
2022-09-27T15:55:25.328Z,10.68
2022-09-27T15:58:08.316Z,10.80
2022-09-27T16:00:35.947Z,9.80
2022-09-27T16:03:04.193Z,9.98
2022-09-27T16:05:33.279Z,10.10
2022-09-27T16:08:00.442Z,11.48
2022-09-27T16:10:42.937Z,10.50
2022-09-27T16:13:09.817Z,11.05
2022-09-27T16:15:37.415Z,10.85
2022-09-27T16:18:04.732Z,10.55
2022-09-27T16:20:32.004Z,10.65
2022-09-27T16:22:59.230Z,10.20
2022-09-27T16:25:26.150Z,11.43
2022-09-27T16:27:53.218Z,11.00
2022-09-27T16:30:20.788Z,11.15
2022-09-27T16:32:48.964Z,11.20
2022-09-27T16:35:17.712Z,13.02
2022-09-27T16:37:44.902Z,14.20
2022-09-27T16:40:13.304Z,17.65
2022-09-27T16:42:41.270Z,13.48
2022-09-27T16:45:11.189Z,14.40
2022-09-27T16:47:41.140Z,13.73
2022-09-27T16:50:28.721Z,14.77
2022-09-27T16:52:55.826Z,16.75
2022-09-27T16:55:22.894Z,15.40
2022-09-27T16:57:51.404Z,15.50
2022-09-27T17:00:18.651Z,14.95
2022-09-27T17:02:48.583Z,15.68
2022-09-27T17:05:16.711Z,15.88
2022-09-27T17:07:43.642Z,16.13
2022-09-27T17:10:10.621Z,16.60
2022-09-27T17:12:37.521Z,15.93
2022-09-27T17:15:04.949Z,16.73
2022-09-27T17:17:31.893Z,17.27
2022-09-27T17:19:58.809Z,17.95
2022-09-27T17:22:25.758Z,18.35
2022-09-27T17:24:52.737Z,18.58
2022-09-27T17:27:23.984Z,17.98
2022-09-27T17:29:52.802Z,19.95
2022-09-27T17:32:24.375Z,17.85
2022-09-27T17:34:52.424Z,18.20
2022-09-27T17:37:19.737Z,17.77
2022-09-27T17:39:46.668Z,17.80
2022-09-27T17:42:13.595Z,17.88
2022-09-27T17:44:40.580Z,18.55
2022-09-27T17:47:26.290Z,16.90
2022-09-27T17:50:11.855Z,17.60
2022-09-27T17:52:38.938Z,17.15
2022-09-27T17:55:06.131Z,17.23
2022-09-27T17:57:33.301Z,17.67
2022-09-27T18:00:00.579Z,18.15
2022-09-27T18:02:27.771Z,18.88
2022-09-27T18:04:54.814Z,18.05
2022-09-27T18:07:21.785Z,18.20
2022-09-27T18:09:50.279Z,17.80
2022-09-27T18:12:17.216Z,17.63
2022-09-27T18:14:45.025Z,17.38
2022-09-27T18:17:12.937Z,17.85
2022-09-27T18:19:40.292Z,18.42
2022-09-27T18:22:07.365Z,19.02
2022-09-27T18:24:34.471Z,18.35
2022-09-27T18:27:02.391Z,17.88
2022-09-27T18:29:29.325Z,18.42
2022-09-27T18:31:56.404Z,16.73
2022-09-27T18:34:24.401Z,16.98
2022-09-27T18:36:51.887Z,15.57
2022-09-27T18:39:19.759Z,17.77
2022-09-27T18:41:49.210Z,17.55
2022-09-27T18:44:17.691Z,16.45
2022-09-27T18:46:45.412Z,15.27
2022-09-27T18:49:13.997Z,16.42
2022-09-27T18:51:46.147Z,14.98
2022-09-27T18:54:18.233Z,15.63
2022-09-27T18:56:46.168Z,16.02
2022-09-27T18:59:13.397Z,15.75
2022-09-27T19:01:45.233Z,15.75
2022-09-27T19:04:14.906Z,16.05
2022-09-27T19:06:42.342Z,15.55
2022-09-27T19:09:11.437Z,13.25
2022-09-27T19:11:39.163Z,14.02
2022-09-27T19:14:06.406Z,13.60
2022-09-27T19:16:33.749Z,14.43
2022-09-27T19:19:00.805Z,14.95
2022-09-27T19:21:29.075Z,14.15
2022-09-27T19:23:56.594Z,13.60
2022-09-27T19:26:27.387Z,13.07
2022-09-27T19:28:55.202Z,13.98
2022-09-27T19:31:25.078Z,13.88
2022-09-27T19:33:59.041Z,15.30
2022-09-27T19:36:27.076Z,14.63
2022-09-27T19:38:54.114Z,14.10
2022-09-27T19:41:21.100Z,14.73
2022-09-27T19:43:52.408Z,13.32
2022-09-27T19:46:20.132Z,14.88
2022-09-27T19:48:49.177Z,14.27
2022-09-27T19:51:25.364Z,13.98
2022-09-27T19:53:53.568Z,14.65
2022-09-27T19:56:21.460Z,14.55
2022-09-27T19:58:48.677Z,15.15
2022-09-27T20:01:23.906Z,14.90
2022-09-27T20:03:53.355Z,14.35
2022-09-27T20:06:21.814Z,16.55
2022-09-27T20:08:49.404Z,15.02
2022-09-27T20:11:18.677Z,15.15
2022-09-27T20:13:45.801Z,15.45
2022-09-27T20:16:25.905Z,15.35
2022-09-27T20:18:55.594Z,16.08
2022-09-27T20:21:25.407Z,17.50
2022-09-27T20:23:54.794Z,15.57
2022-09-27T20:26:24.424Z,17.08
2022-09-27T20:28:53.188Z,16.73
2022-09-27T20:31:22.520Z,17.48
2022-09-27T20:33:50.925Z,17.30
2022-09-27T20:36:29.499Z,17.13
2022-09-27T20:39:03.167Z,17.25
2022-09-27T20:41:32.479Z,17.58
2022-09-27T20:44:03.415Z,17.85
2022-09-27T20:46:30.977Z,19.98
2022-09-27T20:49:00.283Z,19.27
2022-09-27T20:51:27.969Z,18.00
2022-09-27T20:53:55.248Z,20.70
2022-09-27T20:56:24.109Z,20.00
2022-09-27T20:58:53.624Z,20.15
2022-09-27T21:01:21.979Z,21.17
2022-09-27T21:03:54.076Z,20.52
2022-09-27T21:06:23.305Z,20.48
2022-09-27T21:08:51.339Z,20.40
2022-09-27T21:11:19.391Z,21.52
2022-09-27T21:13:47.456Z,20.63
2022-09-27T21:16:17.026Z,22.15
2022-09-27T21:18:44.590Z,22.40
2022-09-27T21:21:14.893Z,20.85
2022-09-27T21:23:44.880Z,21.17
2022-09-27T21:26:18.947Z,21.63
2022-09-27T21:28:54.108Z,21.85
2022-09-27T21:31:23.699Z,21.20
2022-09-27T21:33:54.067Z,22.15
2022-09-27T21:36:22.934Z,20.92
2022-09-27T21:38:50.103Z,22.75
2022-09-27T21:41:17.984Z,21.90
2022-09-27T21:43:46.735Z,22.30
2022-09-27T21:46:25.550Z,22.63
2022-09-27T21:48:56.141Z,23.75
2022-09-27T21:51:36.923Z,22.17
2022-09-27T21:54:07.016Z,22.17
2022-09-27T21:56:37.484Z,22.83
2022-09-27T21:59:06.177Z,22.77
2022-09-27T22:01:34.816Z,22.45
2022-09-27T22:04:03.978Z,24.08
2022-09-27T22:06:33.332Z,23.92
2022-09-27T22:09:01.650Z,23.02
2022-09-27T22:11:34.505Z,23.42
2022-09-27T22:14:01.884Z,23.40
2022-09-27T22:16:32.129Z,24.15
2022-09-27T22:19:00.201Z,24.48
2022-09-27T22:21:29.704Z,24.77
2022-09-27T22:24:05.147Z,23.77
2022-09-27T22:26:36.685Z,24.83
2022-09-27T22:29:03.990Z,25.17
2022-09-27T22:31:31.083Z,25.35
2022-09-27T22:34:04.009Z,23.98
2022-09-27T22:36:32.327Z,24.10
2022-09-27T22:38:59.651Z,24.58
2022-09-27T22:41:27.320Z,24.58
2022-09-27T22:43:54.284Z,24.33
2022-09-27T22:46:22.250Z,26.35
2022-09-27T22:48:49.874Z,24.60
2022-09-27T22:51:17.788Z,25.60
2022-09-27T22:53:44.985Z,26.67
2022-09-27T22:56:20.182Z,25.88
2022-09-27T22:58:49.168Z,26.35
2022-09-27T23:01:21.597Z,27.02
2022-09-27T23:03:50.140Z,26.77
2022-09-27T23:06:19.420Z,25.55
2022-09-27T23:08:47.917Z,26.23
2022-09-27T23:11:17.920Z,24.95
2022-09-27T23:13:45.666Z,27.27
2022-09-27T23:16:17.717Z,25.98
2022-09-27T23:18:44.965Z,26.50
2022-09-27T23:21:13.189Z,25.88
2022-09-27T23:23:43.659Z,27.42
2022-09-27T23:26:14.021Z,27.92
2022-09-27T23:28:41.368Z,26.33
2022-09-27T23:31:10.632Z,25.90
2022-09-27T23:33:39.208Z,27.10
2022-09-27T23:36:09.115Z,27.08
2022-09-27T23:38:37.319Z,27.77
2022-09-27T23:41:05.247Z,29.00
2022-09-27T23:43:32.537Z,26.95
2022-09-27T23:45:59.490Z,26.52
2022-09-27T23:48:27.861Z,26.95
2022-09-27T23:50:55.167Z,26.65
2022-09-27T23:53:22.549Z,27.17
2022-09-27T23:56:02.703Z,27.42
2022-09-27T23:58:36.992Z,27.58
